sensor_id;sensor_type;location;lat;lon;timestamp;temperature;humidity
46816;DHT22;32787;53.316;8.670;2023-09-30T00:00:22;12.10;93.60
46816;DHT22;32787;53.316;8.670;2023-09-30T00:02:48;12.10;93.60
46816;DHT22;32787;53.316;8.670;2023-09-30T00:05:13;12.10;93.70
46816;DHT22;32787;53.316;8.670;2023-09-30T00:07:40;12.20;93.90
46816;DHT22;32787;53.316;8.670;2023-09-30T00:10:06;12.20;93.60
46816;DHT22;32787;53.316;8.670;2023-09-30T00:12:32;12.10;93.60
46816;DHT22;32787;53.316;8.670;2023-09-30T00:14:57;12.20;94.00
46816;DHT22;32787;53.316;8.670;2023-09-30T00:17:23;12.20;93.60
46816;DHT22;32787;53.316;8.670;2023-09-30T00:19:49;12.00;93.70
46816;DHT22;32787;53.316;8.670;2023-09-30T00:22:14;12.10;93.90
46816;DHT22;32787;53.316;8.670;2023-09-30T00:24:40;12.30;93.80
46816;DHT22;32787;53.316;8.670;2023-09-30T00:27:06;12.30;93.00
46816;DHT22;32787;53.316;8.670;2023-09-30T00:29:31;12.10;93.20
46816;DHT22;32787;53.316;8.670;2023-09-30T00:31:57;12.20;93.80
46816;DHT22;32787;53.316;8.670;2023-09-30T00:34:23;12.20;93.40
46816;DHT22;32787;53.316;8.670;2023-09-30T00:36:48;12.10;93.40
46816;DHT22;32787;53.316;8.670;2023-09-30T00:39:14;12.00;93.70
46816;DHT22;32787;53.316;8.670;2023-09-30T00:41:39;12.20;93.70
46816;DHT22;32787;53.316;8.670;2023-09-30T00:44:06;12.10;93.60
46816;DHT22;32787;53.316;8.670;2023-09-30T00:46:36;12.00;93.90
46816;DHT22;32787;53.316;8.670;2023-09-30T00:49:03;12.20;93.70
46816;DHT22;32787;53.316;8.670;2023-09-30T00:51:29;12.30;93.90
46816;DHT22;32787;53.316;8.670;2023-09-30T00:53:58;12.20;93.30
46816;DHT22;32787;53.316;8.670;2023-09-30T00:56:26;12.10;93.60
46816;DHT22;32787;53.316;8.670;2023-09-30T00:58:52;12.10;93.80
46816;DHT22;32787;53.316;8.670;2023-09-30T01:01:19;11.90;93.80
46816;DHT22;32787;53.316;8.670;2023-09-30T01:03:48;12.00;94.10
46816;DHT22;32787;53.316;8.670;2023-09-30T01:06:14;12.00;94.20
46816;DHT22;32787;53.316;8.670;2023-09-30T01:08:40;12.00;93.90
46816;DHT22;32787;53.316;8.670;2023-09-30T01:11:07;12.00;93.90
46816;DHT22;32787;53.316;8.670;2023-09-30T01:13:36;12.00;93.90
46816;DHT22;32787;53.316;8.670;2023-09-30T01:16:07;12.00;94.10
46816;DHT22;32787;53.316;8.670;2023-09-30T01:18:41;11.90;94.00
46816;DHT22;32787;53.316;8.670;2023-09-30T01:21:08;12.00;94.20
46816;DHT22;32787;53.316;8.670;2023-09-30T01:23:35;11.90;93.80
46816;DHT22;32787;53.316;8.670;2023-09-30T01:26:05;11.90;94.10
46816;DHT22;32787;53.316;8.670;2023-09-30T01:28:32;12.10;94.10
46816;DHT22;32787;53.316;8.670;2023-09-30T01:30:58;12.30;93.70
46816;DHT22;32787;53.316;8.670;2023-09-30T01:33:24;12.30;93.70
46816;DHT22;32787;53.316;8.670;2023-09-30T01:35:49;12.40;93.50
46816;DHT22;32787;53.316;8.670;2023-09-30T01:38:15;12.30;93.50
46816;DHT22;32787;53.316;8.670;2023-09-30T01:40:41;12.10;93.50
46816;DHT22;32787;53.316;8.670;2023-09-30T01:43:07;12.20;93.80
46816;DHT22;32787;53.316;8.670;2023-09-30T01:45:33;12.30;93.70
46816;DHT22;32787;53.316;8.670;2023-09-30T01:48:00;12.30;93.40
46816;DHT22;32787;53.316;8.670;2023-09-30T01:50:26;12.30;93.00
46816;DHT22;32787;53.316;8.670;2023-09-30T01:52:51;12.20;93.50
46816;DHT22;32787;53.316;8.670;2023-09-30T01:55:17;12.20;93.60
46816;DHT22;32787;53.316;8.670;2023-09-30T01:57:43;12.30;93.30
46816;DHT22;32787;53.316;8.670;2023-09-30T02:00:08;12.20;93.10
46816;DHT22;32787;53.316;8.670;2023-09-30T02:02:35;12.00;93.50
46816;DHT22;32787;53.316;8.670;2023-09-30T02:05:02;12.10;93.90
46816;DHT22;32787;53.316;8.670;2023-09-30T02:07:28;12.00;93.60
46816;DHT22;32787;53.316;8.670;2023-09-30T02:09:55;12.00;93.90
46816;DHT22;32787;53.316;8.670;2023-09-30T02:12:21;12.10;93.60
46816;DHT22;32787;53.316;8.670;2023-09-30T02:14:46;12.20;93.40
46816;DHT22;32787;53.316;8.670;2023-09-30T02:17:12;12.20;93.40
46816;DHT22;32787;53.316;8.670;2023-09-30T02:19:39;12.10;93.40
46816;DHT22;32787;53.316;8.670;2023-09-30T02:22:06;12.00;93.40
46816;DHT22;32787;53.316;8.670;2023-09-30T02:24:32;12.00;93.80
46816;DHT22;32787;53.316;8.670;2023-09-30T02:26:58;11.90;93.80
46816;DHT22;32787;53.316;8.670;2023-09-30T02:29:23;11.90;93.90
46816;DHT22;32787;53.316;8.670;2023-09-30T02:31:49;12.10;93.80
46816;DHT22;32787;53.316;8.670;2023-09-30T02:34:15;12.00;94.00
46816;DHT22;32787;53.316;8.670;2023-09-30T02:36:41;12.20;93.90
46816;DHT22;32787;53.316;8.670;2023-09-30T02:39:07;12.20;93.50
46816;DHT22;32787;53.316;8.670;2023-09-30T02:41:35;12.00;93.60
46816;DHT22;32787;53.316;8.670;2023-09-30T02:44:01;12.00;93.80
46816;DHT22;32787;53.316;8.670;2023-09-30T02:46:26;12.10;93.70
46816;DHT22;32787;53.316;8.670;2023-09-30T02:48:53;12.10;93.80
46816;DHT22;32787;53.316;8.670;2023-09-30T02:51:19;12.20;93.90
46816;DHT22;32787;53.316;8.670;2023-09-30T02:53:45;12.30;93.90
46816;DHT22;32787;53.316;8.670;2023-09-30T02:56:13;12.30;93.60
46816;DHT22;32787;53.316;8.670;2023-09-30T02:58:39;12.10;93.80
46816;DHT22;32787;53.316;8.670;2023-09-30T03:01:06;12.20;93.70
46816;DHT22;32787;53.316;8.670;2023-09-30T03:03:32;12.20;93.80
46816;DHT22;32787;53.316;8.670;2023-09-30T03:05:59;12.30;93.70
46816;DHT22;32787;53.316;8.670;2023-09-30T03:08:26;12.30;93.70
46816;DHT22;32787;53.316;8.670;2023-09-30T03:10:51;12.30;93.70
46816;DHT22;32787;53.316;8.670;2023-09-30T03:13:18;12.20;93.80
46816;DHT22;32787;53.316;8.670;2023-09-30T03:15:46;12.20;93.80
46816;DHT22;32787;53.316;8.670;2023-09-30T03:18:12;12.30;93.70
46816;DHT22;32787;53.316;8.670;2023-09-30T03:20:39;12.30;93.40
46816;DHT22;32787;53.316;8.670;2023-09-30T03:23:05;12.20;93.40
46816;DHT22;32787;53.316;8.670;2023-09-30T03:25:31;12.00;93.60
46816;DHT22;32787;53.316;8.670;2023-09-30T03:27:57;12.00;93.90
46816;DHT22;32787;53.316;8.670;2023-09-30T03:30:23;12.20;94.10
46816;DHT22;32787;53.316;8.670;2023-09-30T03:32:49;12.30;93.50
46816;DHT22;32787;53.316;8.670;2023-09-30T03:35:15;12.20;93.30
46816;DHT22;32787;53.316;8.670;2023-09-30T03:37:45;12.30;93.00
46816;DHT22;32787;53.316;8.670;2023-09-30T03:40:11;12.20;93.00
46816;DHT22;32787;53.316;8.670;2023-09-30T03:42:41;12.30;93.00
46816;DHT22;32787;53.316;8.670;2023-09-30T03:45:08;12.10;93.20
46816;DHT22;32787;53.316;8.670;2023-09-30T03:47:40;12.30;92.80
46816;DHT22;32787;53.316;8.670;2023-09-30T03:50:06;12.30;93.00
46816;DHT22;32787;53.316;8.670;2023-09-30T03:52:38;12.30;92.80
46816;DHT22;32787;53.316;8.670;2023-09-30T03:55:04;12.40;93.00
46816;DHT22;32787;53.316;8.670;2023-09-30T03:57:33;12.30;92.60
46816;DHT22;32787;53.316;8.670;2023-09-30T04:00:00;12.30;92.70
46816;DHT22;32787;53.316;8.670;2023-09-30T04:02:26;12.20;93.20
46816;DHT22;32787;53.316;8.670;2023-09-30T04:04:52;12.20;93.00
46816;DHT22;32787;53.316;8.670;2023-09-30T04:07:21;12.30;93.00
46816;DHT22;32787;53.316;8.670;2023-09-30T04:09:47;12.30;92.80
46816;DHT22;32787;53.316;8.670;2023-09-30T04:12:12;12.10;92.70
46816;DHT22;32787;53.316;8.670;2023-09-30T04:14:38;12.20;92.70
46816;DHT22;32787;53.316;8.670;2023-09-30T04:17:04;12.10;92.60
46816;DHT22;32787;53.316;8.670;2023-09-30T04:19:30;12.20;93.00
46816;DHT22;32787;53.316;8.670;2023-09-30T04:21:56;12.30;92.70
46816;DHT22;32787;53.316;8.670;2023-09-30T04:24:22;12.10;92.90
46816;DHT22;32787;53.316;8.670;2023-09-30T04:26:48;12.00;93.00
46816;DHT22;32787;53.316;8.670;2023-09-30T04:29:15;11.90;93.40
46816;DHT22;32787;53.316;8.670;2023-09-30T04:31:41;12.10;93.10
46816;DHT22;32787;53.316;8.670;2023-09-30T04:34:07;12.00;93.30
46816;DHT22;32787;53.316;8.670;2023-09-30T04:36:33;12.10;92.80
46816;DHT22;32787;53.316;8.670;2023-09-30T04:39:00;12.20;93.00
46816;DHT22;32787;53.316;8.670;2023-09-30T04:41:26;12.20;93.00
46816;DHT22;32787;53.316;8.670;2023-09-30T04:43:52;12.20;92.90
46816;DHT22;32787;53.316;8.670;2023-09-30T04:46:18;12.00;93.00
46816;DHT22;32787;53.316;8.670;2023-09-30T04:48:47;12.10;93.30
46816;DHT22;32787;53.316;8.670;2023-09-30T04:51:14;12.10;93.30
46816;DHT22;32787;53.316;8.670;2023-09-30T04:53:42;12.10;93.30
46816;DHT22;32787;53.316;8.670;2023-09-30T04:56:07;12.00;93.30
46816;DHT22;32787;53.316;8.670;2023-09-30T04:58:33;11.90;93.20
46816;DHT22;32787;53.316;8.670;2023-09-30T05:00:58;11.90;93.70
46816;DHT22;32787;53.316;8.670;2023-09-30T05:03:24;11.90;93.60
46816;DHT22;32787;53.316;8.670;2023-09-30T05:05:54;11.90;93.80
46816;DHT22;32787;53.316;8.670;2023-09-30T05:08:23;12.10;93.70
46816;DHT22;32787;53.316;8.670;2023-09-30T05:10:49;12.00;93.30
46816;DHT22;32787;53.316;8.670;2023-09-30T05:13:15;12.00;93.20
46816;DHT22;32787;53.316;8.670;2023-09-30T05:15:41;12.10;93.30
46816;DHT22;32787;53.316;8.670;2023-09-30T05:18:07;12.10;93.20
46816;DHT22;32787;53.316;8.670;2023-09-30T05:20:35;11.90;93.20
46816;DHT22;32787;53.316;8.670;2023-09-30T05:23:02;12.00;93.50
46816;DHT22;32787;53.316;8.670;2023-09-30T05:25:28;11.90;93.60
46816;DHT22;32787;53.316;8.670;2023-09-30T05:27:54;11.90;93.50
46816;DHT22;32787;53.316;8.670;2023-09-30T05:30:20;11.80;93.50
46816;DHT22;32787;53.316;8.670;2023-09-30T05:32:46;11.80;94.00
46816;DHT22;32787;53.316;8.670;2023-09-30T05:35:12;11.70;93.90
46816;DHT22;32787;53.316;8.670;2023-09-30T05:37:42;11.60;93.90
46816;DHT22;32787;53.316;8.670;2023-09-30T05:40:09;11.60;94.20
46816;DHT22;32787;53.316;8.670;2023-09-30T05:42:47;11.60;94.00
46816;DHT22;32787;53.316;8.670;2023-09-30T05:45:15;11.50;94.30
46816;DHT22;32787;53.316;8.670;2023-09-30T05:47:41;11.60;94.20
46816;DHT22;32787;53.316;8.670;2023-09-30T05:50:08;11.60;94.20
46816;DHT22;32787;53.316;8.670;2023-09-30T05:52:35;11.70;94.20
46816;DHT22;32787;53.316;8.670;2023-09-30T05:55:02;11.50;94.30
46816;DHT22;32787;53.316;8.670;2023-09-30T05:57:28;11.50;94.50
46816;DHT22;32787;53.316;8.670;2023-09-30T05:59:54;11.80;94.70
46816;DHT22;32787;53.316;8.670;2023-09-30T06:02:19;11.70;94.20
46816;DHT22;32787;53.316;8.670;2023-09-30T06:04:45;11.60;94.30
46816;DHT22;32787;53.316;8.670;2023-09-30T06:07:11;11.80;94.30
46816;DHT22;32787;53.316;8.670;2023-09-30T06:09:38;11.70;93.90
46816;DHT22;32787;53.316;8.670;2023-09-30T06:12:03;11.70;93.90
46816;DHT22;32787;53.316;8.670;2023-09-30T06:14:32;11.80;94.00
46816;DHT22;32787;53.316;8.670;2023-09-30T06:16:58;11.90;93.90
46816;DHT22;32787;53.316;8.670;2023-09-30T06:19:24;12.00;93.70
46816;DHT22;32787;53.316;8.670;2023-09-30T06:21:51;11.90;93.30
46816;DHT22;32787;53.316;8.670;2023-09-30T06:24:17;11.90;93.40
46816;DHT22;32787;53.316;8.670;2023-09-30T06:26:45;12.10;93.70
46816;DHT22;32787;53.316;8.670;2023-09-30T06:29:11;12.20;93.00
46816;DHT22;32787;53.316;8.670;2023-09-30T06:31:37;12.20;93.20
46816;DHT22;32787;53.316;8.670;2023-09-30T06:34:02;12.20;92.90
46816;DHT22;32787;53.316;8.670;2023-09-30T06:36:29;12.30;93.00
46816;DHT22;32787;53.316;8.670;2023-09-30T06:38:55;12.20;93.00
46816;DHT22;32787;53.316;8.670;2023-09-30T06:41:21;12.20;93.30
46816;DHT22;32787;53.316;8.670;2023-09-30T06:43:46;12.30;93.40
46816;DHT22;32787;53.316;8.670;2023-09-30T06:46:12;12.30;93.20
46816;DHT22;32787;53.316;8.670;2023-09-30T06:48:39;12.30;93.30
46816;DHT22;32787;53.316;8.670;2023-09-30T06:51:07;12.30;93.20
46816;DHT22;32787;53.316;8.670;2023-09-30T06:53:33;12.40;93.20
46816;DHT22;32787;53.316;8.670;2023-09-30T06:55:59;12.40;93.10
46816;DHT22;32787;53.316;8.670;2023-09-30T06:58:24;12.40;93.10
46816;DHT22;32787;53.316;8.670;2023-09-30T07:00:51;12.60;93.20
46816;DHT22;32787;53.316;8.670;2023-09-30T07:03:17;12.60;93.00
46816;DHT22;32787;53.316;8.670;2023-09-30T07:05:45;12.70;92.50
46816;DHT22;32787;53.316;8.670;2023-09-30T07:08:10;12.60;92.80
46816;DHT22;32787;53.316;8.670;2023-09-30T07:10:36;12.50;93.00
46816;DHT22;32787;53.316;8.670;2023-09-30T07:13:03;12.60;93.40
46816;DHT22;32787;53.316;8.670;2023-09-30T07:15:29;12.60;93.30
46816;DHT22;32787;53.316;8.670;2023-09-30T07:17:54;12.80;93.00
46816;DHT22;32787;53.316;8.670;2023-09-30T07:20:20;12.80;92.70
46816;DHT22;32787;53.316;8.670;2023-09-30T07:22:48;12.90;92.90
46816;DHT22;32787;53.316;8.670;2023-09-30T07:25:14;13.10;92.60
46816;DHT22;32787;53.316;8.670;2023-09-30T07:27:44;13.30;92.60
46816;DHT22;32787;53.316;8.670;2023-09-30T07:30:11;13.50;92.20
46816;DHT22;32787;53.316;8.670;2023-09-30T07:32:38;13.90;91.00
46816;DHT22;32787;53.316;8.670;2023-09-30T07:35:04;14.30;89.90
46816;DHT22;32787;53.316;8.670;2023-09-30T07:37:29;14.30;89.40
46816;DHT22;32787;53.316;8.670;2023-09-30T07:39:55;14.30;88.90
46816;DHT22;32787;53.316;8.670;2023-09-30T07:42:21;14.30;89.10
46816;DHT22;32787;53.316;8.670;2023-09-30T07:44:47;14.10;89.40
46816;DHT22;32787;53.316;8.670;2023-09-30T07:47:14;14.00;89.70
46816;DHT22;32787;53.316;8.670;2023-09-30T07:49:40;13.80;90.50
46816;DHT22;32787;53.316;8.670;2023-09-30T07:52:06;13.60;90.90
46816;DHT22;32787;53.316;8.670;2023-09-30T07:54:31;13.60;91.20
46816;DHT22;32787;53.316;8.670;2023-09-30T07:56:57;13.80;91.20
46816;DHT22;32787;53.316;8.670;2023-09-30T07:59:24;13.80;91.00
46816;DHT22;32787;53.316;8.670;2023-09-30T08:01:51;13.80;91.00
46816;DHT22;32787;53.316;8.670;2023-09-30T08:04:18;13.70;91.60
46816;DHT22;32787;53.316;8.670;2023-09-30T08:06:44;13.80;91.80
46816;DHT22;32787;53.316;8.670;2023-09-30T08:09:12;13.90;91.10
46816;DHT22;32787;53.316;8.670;2023-09-30T08:11:38;13.80;91.70
46816;DHT22;32787;53.316;8.670;2023-09-30T08:14:04;13.90;91.70
46816;DHT22;32787;53.316;8.670;2023-09-30T08:16:38;14.10;91.40
46816;DHT22;32787;53.316;8.670;2023-09-30T08:19:04;14.10;91.00
46816;DHT22;32787;53.316;8.670;2023-09-30T08:21:30;14.10;91.30
46816;DHT22;32787;53.316;8.670;2023-09-30T08:23:57;14.30;90.90
46816;DHT22;32787;53.316;8.670;2023-09-30T08:26:22;14.40;90.40
46816;DHT22;32787;53.316;8.670;2023-09-30T08:28:48;14.50;90.00
46816;DHT22;32787;53.316;8.670;2023-09-30T08:31:14;14.50;90.10
46816;DHT22;32787;53.316;8.670;2023-09-30T08:33:39;14.60;89.90
46816;DHT22;32787;53.316;8.670;2023-09-30T08:36:06;14.70;90.10
46816;DHT22;32787;53.316;8.670;2023-09-30T08:38:35;14.60;89.60
46816;DHT22;32787;53.316;8.670;2023-09-30T08:41:01;14.70;89.70
46816;DHT22;32787;53.316;8.670;2023-09-30T08:43:28;14.60;89.80
46816;DHT22;32787;53.316;8.670;2023-09-30T08:45:56;14.70;90.00
46816;DHT22;32787;53.316;8.670;2023-09-30T08:48:23;14.80;89.80
46816;DHT22;32787;53.316;8.670;2023-09-30T08:50:53;14.70;90.00
46816;DHT22;32787;53.316;8.670;2023-09-30T08:53:20;14.80;89.70
46816;DHT22;32787;53.316;8.670;2023-09-30T08:55:46;14.90;89.70
46816;DHT22;32787;53.316;8.670;2023-09-30T08:58:13;15.00;89.40
46816;DHT22;32787;53.316;8.670;2023-09-30T09:00:39;14.90;89.00
46816;DHT22;32787;53.316;8.670;2023-09-30T09:03:08;14.90;89.70
46816;DHT22;32787;53.316;8.670;2023-09-30T09:05:34;15.00;89.00
46816;DHT22;32787;53.316;8.670;2023-09-30T09:07:59;15.10;89.10
46816;DHT22;32787;53.316;8.670;2023-09-30T09:10:25;15.30;88.60
46816;DHT22;32787;53.316;8.670;2023-09-30T09:13:00;15.30;89.10
46816;DHT22;32787;53.316;8.670;2023-09-30T09:15:27;15.30;89.00
46816;DHT22;32787;53.316;8.670;2023-09-30T09:17:54;15.40;88.40
46816;DHT22;32787;53.316;8.670;2023-09-30T09:20:24;15.40;88.50
46816;DHT22;32787;53.316;8.670;2023-09-30T09:22:55;15.50;88.10
46816;DHT22;32787;53.316;8.670;2023-09-30T09:25:24;15.40;88.50
46816;DHT22;32787;53.316;8.670;2023-09-30T09:27:51;15.50;88.70
46816;DHT22;32787;53.316;8.670;2023-09-30T09:30:24;15.60;89.00
46816;DHT22;32787;53.316;8.670;2023-09-30T09:33:04;15.70;88.30
46816;DHT22;32787;53.316;8.670;2023-09-30T09:35:31;15.70;88.80
46816;DHT22;32787;53.316;8.670;2023-09-30T09:38:06;15.80;88.80
46816;DHT22;32787;53.316;8.670;2023-09-30T09:40:34;15.70;88.90
46816;DHT22;32787;53.316;8.670;2023-09-30T09:43:00;15.70;88.20
46816;DHT22;32787;53.316;8.670;2023-09-30T09:45:41;15.70;88.90
46816;DHT22;32787;53.316;8.670;2023-09-30T09:48:09;15.90;88.50
46816;DHT22;32787;53.316;8.670;2023-09-30T09:50:36;15.90;87.10
46816;DHT22;32787;53.316;8.670;2023-09-30T09:53:02;15.90;86.80
46816;DHT22;32787;53.316;8.670;2023-09-30T09:55:28;16.10;87.10
46816;DHT22;32787;53.316;8.670;2023-09-30T09:57:54;16.20;87.10
46816;DHT22;32787;53.316;8.670;2023-09-30T10:00:23;16.20;87.20
46816;DHT22;32787;53.316;8.670;2023-09-30T10:02:50;16.30;86.40
46816;DHT22;32787;53.316;8.670;2023-09-30T10:05:17;16.40;86.10
46816;DHT22;32787;53.316;8.670;2023-09-30T10:08:05;16.40;86.30
46816;DHT22;32787;53.316;8.670;2023-09-30T10:10:36;16.40;86.40
46816;DHT22;32787;53.316;8.670;2023-09-30T10:13:02;16.50;86.60
46816;DHT22;32787;53.316;8.670;2023-09-30T10:18:08;16.50;86.00
46816;DHT22;32787;53.316;8.670;2023-09-30T10:20:36;16.60;86.40
46816;DHT22;32787;53.316;8.670;2023-09-30T10:25:43;16.80;85.90
46816;DHT22;32787;53.316;8.670;2023-09-30T10:28:38;16.80;84.00
46816;DHT22;32787;53.316;8.670;2023-09-30T10:36:32;16.90;84.00
46816;DHT22;32787;53.316;8.670;2023-09-30T10:38:58;16.90;84.80
46816;DHT22;32787;53.316;8.670;2023-09-30T10:46:59;17.20;83.50
46816;DHT22;32787;53.316;8.670;2023-09-30T10:51:59;17.30;82.00
46816;DHT22;32787;53.316;8.670;2023-09-30T10:54:27;17.10;82.10
46816;DHT22;32787;53.316;8.670;2023-09-30T10:56:53;17.10;83.10
46816;DHT22;32787;53.316;8.670;2023-09-30T10:59:23;17.20;84.70
46816;DHT22;32787;53.316;8.670;2023-09-30T11:01:50;17.30;80.20
46816;DHT22;32787;53.316;8.670;2023-09-30T11:04:15;17.30;80.90
46816;DHT22;32787;53.316;8.670;2023-09-30T11:06:42;17.30;81.00
46816;DHT22;32787;53.316;8.670;2023-09-30T11:09:08;17.30;80.60
46816;DHT22;32787;53.316;8.670;2023-09-30T11:11:44;17.20;81.70
46816;DHT22;32787;53.316;8.670;2023-09-30T11:14:23;17.30;82.70
46816;DHT22;32787;53.316;8.670;2023-09-30T11:16:50;17.50;83.90
46816;DHT22;32787;53.316;8.670;2023-09-30T11:19:16;17.50;79.40
46816;DHT22;32787;53.316;8.670;2023-09-30T11:21:43;17.60;77.30
46816;DHT22;32787;53.316;8.670;2023-09-30T11:24:13;17.70;76.00
46816;DHT22;32787;53.316;8.670;2023-09-30T11:26:39;17.60;76.70
46816;DHT22;32787;53.316;8.670;2023-09-30T11:29:08;17.60;76.00
46816;DHT22;32787;53.316;8.670;2023-09-30T11:31:37;17.70;75.90
46816;DHT22;32787;53.316;8.670;2023-09-30T11:34:03;17.70;74.40
46816;DHT22;32787;53.316;8.670;2023-09-30T11:36:34;17.80;73.30
46816;DHT22;32787;53.316;8.670;2023-09-30T11:39:00;17.70;74.30
46816;DHT22;32787;53.316;8.670;2023-09-30T11:41:38;17.80;77.00
46816;DHT22;32787;53.316;8.670;2023-09-30T11:44:06;17.90;75.30
46816;DHT22;32787;53.316;8.670;2023-09-30T11:46:52;17.80;74.00
46816;DHT22;32787;53.316;8.670;2023-09-30T11:51:52;17.90;76.70
46816;DHT22;32787;53.316;8.670;2023-09-30T11:54:18;18.20;74.90
46816;DHT22;32787;53.316;8.670;2023-09-30T11:56:43;18.10;75.00
46816;DHT22;32787;53.316;8.670;2023-09-30T11:59:10;18.30;74.60
46816;DHT22;32787;53.316;8.670;2023-09-30T12:01:39;18.30;71.00
46816;DHT22;32787;53.316;8.670;2023-09-30T12:04:05;18.20;72.90
46816;DHT22;32787;53.316;8.670;2023-09-30T12:06:32;18.20;72.40
46816;DHT22;32787;53.316;8.670;2023-09-30T12:08:59;18.20;74.40
46816;DHT22;32787;53.316;8.670;2023-09-30T12:11:25;18.10;71.70
46816;DHT22;32787;53.316;8.670;2023-09-30T12:13:51;18.20;72.60
46816;DHT22;32787;53.316;8.670;2023-09-30T12:16:17;18.40;71.90
46816;DHT22;32787;53.316;8.670;2023-09-30T12:18:43;18.30;72.40
46816;DHT22;32787;53.316;8.670;2023-09-30T12:21:10;18.30;71.00
46816;DHT22;32787;53.316;8.670;2023-09-30T12:23:36;18.30;72.40
46816;DHT22;32787;53.316;8.670;2023-09-30T12:26:02;18.20;70.80
46816;DHT22;32787;53.316;8.670;2023-09-30T12:28:34;18.20;73.70
46816;DHT22;32787;53.316;8.670;2023-09-30T12:31:01;18.30;69.80
46816;DHT22;32787;53.316;8.670;2023-09-30T12:33:30;18.30;71.50
46816;DHT22;32787;53.316;8.670;2023-09-30T12:35:57;18.40;69.50
46816;DHT22;32787;53.316;8.670;2023-09-30T12:38:25;18.40;68.80
46816;DHT22;32787;53.316;8.670;2023-09-30T12:40:53;18.50;69.50
46816;DHT22;32787;53.316;8.670;2023-09-30T12:43:19;18.40;71.00
46816;DHT22;32787;53.316;8.670;2023-09-30T12:45:46;18.30;69.40
46816;DHT22;32787;53.316;8.670;2023-09-30T12:48:12;18.30;71.40
46816;DHT22;32787;53.316;8.670;2023-09-30T12:50:38;18.10;70.20
46816;DHT22;32787;53.316;8.670;2023-09-30T12:53:04;18.10;70.40
46816;DHT22;32787;53.316;8.670;2023-09-30T12:55:30;18.20;70.00
46816;DHT22;32787;53.316;8.670;2023-09-30T12:57:56;18.30;70.20
46816;DHT22;32787;53.316;8.670;2023-09-30T13:00:21;18.40;71.20
46816;DHT22;32787;53.316;8.670;2023-09-30T13:02:47;18.30;70.70
46816;DHT22;32787;53.316;8.670;2023-09-30T13:05:14;18.30;72.30
46816;DHT22;32787;53.316;8.670;2023-09-30T13:07:42;18.50;71.90
46816;DHT22;32787;53.316;8.670;2023-09-30T13:10:08;18.50;71.00
46816;DHT22;32787;53.316;8.670;2023-09-30T13:12:34;18.60;69.60
46816;DHT22;32787;53.316;8.670;2023-09-30T13:15:00;18.70;69.80
46816;DHT22;32787;53.316;8.670;2023-09-30T13:17:25;18.80;72.10
46816;DHT22;32787;53.316;8.670;2023-09-30T13:19:51;18.80;70.80
46816;DHT22;32787;53.316;8.670;2023-09-30T13:22:17;18.90;72.00
46816;DHT22;32787;53.316;8.670;2023-09-30T13:24:43;19.00;69.80
46816;DHT22;32787;53.316;8.670;2023-09-30T13:27:09;18.90;71.40
46816;DHT22;32787;53.316;8.670;2023-09-30T13:29:35;18.90;72.10
46816;DHT22;32787;53.316;8.670;2023-09-30T13:32:01;18.90;70.80
46816;DHT22;32787;53.316;8.670;2023-09-30T13:34:27;18.80;69.00
46816;DHT22;32787;53.316;8.670;2023-09-30T13:36:54;19.00;71.70
46816;DHT22;32787;53.316;8.670;2023-09-30T13:39:20;18.90;69.00
46816;DHT22;32787;53.316;8.670;2023-09-30T13:41:46;19.00;70.70
46816;DHT22;32787;53.316;8.670;2023-09-30T13:44:13;19.00;68.90
46816;DHT22;32787;53.316;8.670;2023-09-30T13:46:39;19.00;70.10
46816;DHT22;32787;53.316;8.670;2023-09-30T13:49:04;18.90;67.60
46816;DHT22;32787;53.316;8.670;2023-09-30T13:51:30;18.80;70.10
46816;DHT22;32787;53.316;8.670;2023-09-30T13:53:55;19.00;68.90
46816;DHT22;32787;53.316;8.670;2023-09-30T13:56:21;19.20;70.00
46816;DHT22;32787;53.316;8.670;2023-09-30T13:58:47;19.10;68.70
46816;DHT22;32787;53.316;8.670;2023-09-30T14:01:14;18.90;67.80
46816;DHT22;32787;53.316;8.670;2023-09-30T14:03:40;18.80;69.50
46816;DHT22;32787;53.316;8.670;2023-09-30T14:06:13;19.00;70.10
46816;DHT22;32787;53.316;8.670;2023-09-30T14:08:39;19.30;68.80
46816;DHT22;32787;53.316;8.670;2023-09-30T14:11:09;19.30;68.40
46816;DHT22;32787;53.316;8.670;2023-09-30T14:13:34;19.20;69.00
46816;DHT22;32787;53.316;8.670;2023-09-30T14:16:01;19.10;68.40
46816;DHT22;32787;53.316;8.670;2023-09-30T14:18:27;19.00;69.60
46816;DHT22;32787;53.316;8.670;2023-09-30T14:20:52;19.10;69.50
46816;DHT22;32787;53.316;8.670;2023-09-30T14:23:18;18.80;71.20
46816;DHT22;32787;53.316;8.670;2023-09-30T14:25:44;18.80;71.20
46816;DHT22;32787;53.316;8.670;2023-09-30T14:28:09;18.80;70.10
46816;DHT22;32787;53.316;8.670;2023-09-30T14:30:36;18.60;67.20
46816;DHT22;32787;53.316;8.670;2023-09-30T14:33:01;18.60;69.50
46816;DHT22;32787;53.316;8.670;2023-09-30T14:35:28;18.60;67.00
46816;DHT22;32787;53.316;8.670;2023-09-30T14:37:54;18.30;68.40
46816;DHT22;32787;53.316;8.670;2023-09-30T14:40:20;18.40;68.30
46816;DHT22;32787;53.316;8.670;2023-09-30T14:42:46;18.30;69.40
46816;DHT22;32787;53.316;8.670;2023-09-30T14:45:11;18.30;70.70
46816;DHT22;32787;53.316;8.670;2023-09-30T14:47:37;18.30;70.80
46816;DHT22;32787;53.316;8.670;2023-09-30T14:50:06;18.30;70.30
46816;DHT22;32787;53.316;8.670;2023-09-30T14:52:32;18.30;71.20
46816;DHT22;32787;53.316;8.670;2023-09-30T14:54:58;18.00;71.80
46816;DHT22;32787;53.316;8.670;2023-09-30T14:57:24;17.90;72.30
46816;DHT22;32787;53.316;8.670;2023-09-30T14:59:50;18.00;72.70
46816;DHT22;32787;53.316;8.670;2023-09-30T15:02:16;18.00;71.60
46816;DHT22;32787;53.316;8.670;2023-09-30T15:04:41;18.00;72.60
46816;DHT22;32787;53.316;8.670;2023-09-30T15:07:07;17.90;73.70
46816;DHT22;32787;53.316;8.670;2023-09-30T15:09:33;17.90;73.70
46816;DHT22;32787;53.316;8.670;2023-09-30T15:11:58;17.80;74.60
46816;DHT22;32787;53.316;8.670;2023-09-30T15:14:24;17.80;73.80
46816;DHT22;32787;53.316;8.670;2023-09-30T15:16:50;17.80;73.20
46816;DHT22;32787;53.316;8.670;2023-09-30T15:19:15;17.60;72.90
46816;DHT22;32787;53.316;8.670;2023-09-30T15:21:41;17.50;73.50
46816;DHT22;32787;53.316;8.670;2023-09-30T15:24:07;17.50;74.20
46816;DHT22;32787;53.316;8.670;2023-09-30T15:26:33;17.50;74.60
46816;DHT22;32787;53.316;8.670;2023-09-30T15:29:00;17.40;75.60
46816;DHT22;32787;53.316;8.670;2023-09-30T15:31:32;17.50;75.50
46816;DHT22;32787;53.316;8.670;2023-09-30T15:33:58;17.40;77.00
46816;DHT22;32787;53.316;8.670;2023-09-30T15:36:24;17.30;76.90
46816;DHT22;32787;53.316;8.670;2023-09-30T15:38:51;17.30;76.10
46816;DHT22;32787;53.316;8.670;2023-09-30T15:41:22;17.30;77.50
46816;DHT22;32787;53.316;8.670;2023-09-30T15:43:52;17.30;78.80
46816;DHT22;32787;53.316;8.670;2023-09-30T15:46:17;17.30;79.20
46816;DHT22;32787;53.316;8.670;2023-09-30T15:48:44;17.40;77.90